Accueil
METAR-TAF:

METAR-TAF

Aéroports :

Aéroport de Perpignan-Rivesaltes

Perpignan, France

latitude: 42-44N, longitude: 002-52E, altitude: 43 m

Observation

Le bulletin a été fait il y a 16 minutes, à 09:00 UTC
Vent 5 kt de ouest
Température 5°C
Humidité 93%
Pression 1033 hPa
Visibilité: 2600 m
forte neige, pluie, brume

METAR: LFMP 210900Z AUTO 28005KT 2600 +SNRA BR BKN008/// OVC014/// ///CB 05/04 Q1033 BECMG 7000 RA OVC015

Heure: 10:16 (09:16 UTC)

Prévision

Le bulletin a été fait il y a 1 heure et 16 minutes, à 08:00 UTC
Prévision valable du 21 à 09 UTC au 22 à 09 UTC
Vent 10 kt de ouest
Visibilité: 7000 m
Ciel couvert à une hauteur de 1500 ft
pluie
Temporairement
du 21 à 12 UTC au 22 à 09 UTC
Vent 15 kt de est/sud-est avec des rafales jusqu'à 30 kt
Visibilité: 4000 m
Ciel couvert à une hauteur de 500 ft
pluie, brume

TAF: LFMP 210800Z 2109/2209 28010KT 7000 RA OVC015 TEMPO 2112/2209 11015G30KT 4000 RA BR OVC005

Observations et prévisions météorologiques de plus de 4000 aéroports (messages METAR et TAF).

Les stations disponibles sont représentées par des disques jaunes et rouges sur la carte.

Passer la souris dessus pour voir le nom de la station.

Cliquer dessus pour voir les observations et prévisions météorologiques.

Pour changer de carte: cliquez sur les boutons verts avec une croix noire pour zoomer, sur le bouton vert avec un tiret pour effectuer un zoom arrière, ou sur les flèches vertes pour les cartes adjacentes.


METAR-TAF: